sensor_id;sensor_type;location;lat;lon;timestamp;pressure;altitude;pressure_sealevel;temperature;humidity
42385;BME280;28042;43.986;22.860;2023-06-14T00:00:47;100933.50;;;15.61;100.00
42385;BME280;28042;43.986;22.860;2023-06-14T00:03:14;100939.00;;;15.61;100.00
42385;BME280;28042;43.986;22.860;2023-06-14T00:05:43;100938.59;;;15.58;100.00
42385;BME280;28042;43.986;22.860;2023-06-14T00:08:09;100971.06;;;15.74;100.00
42385;BME280;28042;43.986;22.860;2023-06-14T00:10:35;100938.19;;;15.61;100.00
42385;BME280;28042;43.986;22.860;2023-06-14T00:13:02;100967.69;;;15.72;100.00
42385;BME280;28042;43.986;22.860;2023-06-14T00:15:30;100948.81;;;15.50;100.00
42385;BME280;28042;43.986;22.860;2023-06-14T00:17:56;100971.19;;;15.61;100.00
42385;BME280;28042;43.986;22.860;2023-06-14T00:20:26;100972.03;;;15.54;100.00
42385;BME280;28042;43.986;22.860;2023-06-14T00:22:52;100963.63;;;15.49;100.00
42385;BME280;28042;43.986;22.860;2023-06-14T00:25:19;100946.47;;;15.29;100.00
42385;BME280;28042;43.986;22.860;2023-06-14T00:27:44;100972.75;;;15.43;100.00
42385;BME280;28042;43.986;22.860;2023-06-14T00:30:10;100977.69;;;15.35;100.00
42385;BME280;28042;43.986;22.860;2023-06-14T00:32:36;100963.84;;;15.23;100.00
42385;BME280;28042;43.986;22.860;2023-06-14T00:35:02;100955.00;;;15.14;100.00
42385;BME280;28042;43.986;22.860;2023-06-14T00:37:27;100979.88;;;15.26;100.00
42385;BME280;28042;43.986;22.860;2023-06-14T00:39:53;100960.53;;;15.08;100.00
42385;BME280;28042;43.986;22.860;2023-06-14T00:42:28;100977.38;;;15.18;100.00
42385;BME280;28042;43.986;22.860;2023-06-14T00:44:54;100958.06;;;14.99;100.00
42385;BME280;28042;43.986;22.860;2023-06-14T00:47:20;100940.53;;;14.94;100.00
42385;BME280;28042;43.986;22.860;2023-06-14T00:49:47;100946.44;;;14.97;100.00
42385;BME280;28042;43.986;22.860;2023-06-14T00:52:13;100969.81;;;15.13;100.00
42385;BME280;28042;43.986;22.860;2023-06-14T00:54:43;100959.56;;;14.95;100.00
42385;BME280;28042;43.986;22.860;2023-06-14T00:57:09;100942.69;;;14.85;100.00
42385;BME280;28042;43.986;22.860;2023-06-14T00:59:47;100966.28;;;14.99;100.00
42385;BME280;28042;43.986;22.860;2023-06-14T01:02:13;100966.50;;;15.05;100.00
42385;BME280;28042;43.986;22.860;2023-06-14T01:04:40;100972.38;;;15.08;100.00
42385;BME280;28042;43.986;22.860;2023-06-14T01:07:11;100970.91;;;15.06;100.00
42385;BME280;28042;43.986;22.860;2023-06-14T01:10:09;100966.84;;;15.15;100.00
42385;BME280;28042;43.986;22.860;2023-06-14T01:12:51;100956.69;;;15.15;100.00
42385;BME280;28042;43.986;22.860;2023-06-14T01:15:20;100929.78;;;14.92;100.00
42385;BME280;28042;43.986;22.860;2023-06-14T01:17:49;100946.81;;;15.08;100.00
42385;BME280;28042;43.986;22.860;2023-06-14T01:20:17;100962.25;;;15.02;100.00
42385;BME280;28042;43.986;22.860;2023-06-14T01:22:51;100922.63;;;14.85;100.00
42385;BME280;28042;43.986;22.860;2023-06-14T01:25:17;100932.75;;;14.91;100.00
42385;BME280;28042;43.986;22.860;2023-06-14T01:27:47;100914.63;;;14.83;100.00
42385;BME280;28042;43.986;22.860;2023-06-14T01:30:14;100912.78;;;14.77;100.00
42385;BME280;28042;43.986;22.860;2023-06-14T01:32:40;100950.91;;;14.92;100.00
42385;BME280;28042;43.986;22.860;2023-06-14T01:35:06;100936.19;;;14.86;100.00
42385;BME280;28042;43.986;22.860;2023-06-14T01:37:31;100924.28;;;14.61;100.00
42385;BME280;28042;43.986;22.860;2023-06-14T01:39:58;100953.31;;;14.75;100.00
42385;BME280;28042;43.986;22.860;2023-06-14T01:42:24;100962.03;;;14.65;100.00
42385;BME280;28042;43.986;22.860;2023-06-14T01:44:51;100958.91;;;14.62;100.00
42385;BME280;28042;43.986;22.860;2023-06-14T01:47:19;100952.81;;;14.53;100.00
42385;BME280;28042;43.986;22.860;2023-06-14T01:49:46;100930.69;;;14.28;100.00
42385;BME280;28042;43.986;22.860;2023-06-14T01:52:12;100945.66;;;14.32;100.00
42385;BME280;28042;43.986;22.860;2023-06-14T01:54:37;100950.75;;;14.22;100.00
42385;BME280;28042;43.986;22.860;2023-06-14T01:57:07;100963.44;;;14.23;100.00
42385;BME280;28042;43.986;22.860;2023-06-14T01:59:33;100944.28;;;14.03;100.00
42385;BME280;28042;43.986;22.860;2023-06-14T02:02:02;100971.88;;;14.22;100.00
42385;BME280;28042;43.986;22.860;2023-06-14T02:04:27;100971.25;;;14.26;100.00
42385;BME280;28042;43.986;22.860;2023-06-14T02:06:53;100976.06;;;14.31;100.00
42385;BME280;28042;43.986;22.860;2023-06-14T02:09:18;100952.91;;;14.13;100.00
42385;BME280;28042;43.986;22.860;2023-06-14T02:11:44;100956.25;;;14.22;100.00
42385;BME280;28042;43.986;22.860;2023-06-14T02:14:09;100955.19;;;14.23;100.00
42385;BME280;28042;43.986;22.860;2023-06-14T02:16:37;100946.13;;;14.23;100.00
42385;BME280;28042;43.986;22.860;2023-06-14T02:19:06;100948.47;;;14.19;100.00
42385;BME280;28042;43.986;22.860;2023-06-14T02:21:32;100983.66;;;14.35;100.00
42385;BME280;28042;43.986;22.860;2023-06-14T02:23:57;100952.50;;;14.17;100.00
42385;BME280;28042;43.986;22.860;2023-06-14T02:26:23;100984.09;;;14.32;100.00
42385;BME280;28042;43.986;22.860;2023-06-14T02:28:49;100959.22;;;14.14;100.00
42385;BME280;28042;43.986;22.860;2023-06-14T02:31:14;100949.94;;;14.15;100.00
42385;BME280;28042;43.986;22.860;2023-06-14T02:33:41;100982.00;;;14.34;100.00
42385;BME280;28042;43.986;22.860;2023-06-14T02:36:07;100957.09;;;14.23;100.00
42385;BME280;28042;43.986;22.860;2023-06-14T02:38:32;100960.66;;;14.30;100.00
42385;BME280;28042;43.986;22.860;2023-06-14T02:40:58;100957.53;;;14.26;100.00
42385;BME280;28042;43.986;22.860;2023-06-14T02:43:25;100980.28;;;14.47;100.00
42385;BME280;28042;43.986;22.860;2023-06-14T02:45:50;100995.47;;;14.42;100.00
42385;BME280;28042;43.986;22.860;2023-06-14T02:48:16;100982.38;;;14.45;100.00
42385;BME280;28042;43.986;22.860;2023-06-14T02:50:41;100970.97;;;14.48;100.00
42385;BME280;28042;43.986;22.860;2023-06-14T02:53:07;100982.13;;;14.59;100.00
42385;BME280;28042;43.986;22.860;2023-06-14T02:55:33;100985.72;;;14.60;100.00
42385;BME280;28042;43.986;22.860;2023-06-14T02:57:58;100984.03;;;14.59;100.00
42385;BME280;28042;43.986;22.860;2023-06-14T03:00:24;100985.72;;;14.60;100.00
42385;BME280;28042;43.986;22.860;2023-06-14T03:02:49;100957.88;;;14.50;100.00
42385;BME280;28042;43.986;22.860;2023-06-14T03:05:16;100981.03;;;14.67;100.00
42385;BME280;28042;43.986;22.860;2023-06-14T03:07:46;100977.22;;;14.68;100.00
42385;BME280;28042;43.986;22.860;2023-06-14T03:10:12;100976.19;;;14.69;100.00
42385;BME280;28042;43.986;22.860;2023-06-14T03:12:38;100991.59;;;14.70;100.00
42385;BME280;28042;43.986;22.860;2023-06-14T03:15:05;100956.41;;;14.47;100.00
42385;BME280;28042;43.986;22.860;2023-06-14T03:17:30;100959.16;;;14.47;100.00
42385;BME280;28042;43.986;22.860;2023-06-14T03:19:59;100974.34;;;14.50;100.00
42385;BME280;28042;43.986;22.860;2023-06-14T03:22:25;100993.69;;;14.68;100.00
42385;BME280;28042;43.986;22.860;2023-06-14T03:24:51;101000.47;;;14.72;100.00
42385;BME280;28042;43.986;22.860;2023-06-14T03:27:17;101000.84;;;14.76;100.00
42385;BME280;28042;43.986;22.860;2023-06-14T03:29:44;101007.19;;;14.76;100.00
42385;BME280;28042;43.986;22.860;2023-06-14T03:32:09;100972.88;;;14.54;100.00
42385;BME280;28042;43.986;22.860;2023-06-14T03:34:35;100968.00;;;14.56;100.00
42385;BME280;28042;43.986;22.860;2023-06-14T03:37:00;100982.75;;;14.61;100.00
42385;BME280;28042;43.986;22.860;2023-06-14T03:39:26;100999.16;;;14.75;100.00
42385;BME280;28042;43.986;22.860;2023-06-14T03:41:51;100996.03;;;14.71;100.00
42385;BME280;28042;43.986;22.860;2023-06-14T03:44:18;101002.13;;;14.80;100.00
42385;BME280;28042;43.986;22.860;2023-06-14T03:46:45;100972.63;;;14.62;100.00
42385;BME280;28042;43.986;22.860;2023-06-14T03:49:11;100980.41;;;14.65;100.00
42385;BME280;28042;43.986;22.860;2023-06-14T03:51:37;101000.38;;;14.85;100.00
42385;BME280;28042;43.986;22.860;2023-06-14T03:54:03;100973.38;;;14.76;100.00
42385;BME280;28042;43.986;22.860;2023-06-14T03:56:28;100974.19;;;14.83;100.00
42385;BME280;28042;43.986;22.860;2023-06-14T03:58:54;101000.53;;;15.04;100.00
42385;BME280;28042;43.986;22.860;2023-06-14T04:01:20;100964.25;;;14.88;100.00
42385;BME280;28042;43.986;22.860;2023-06-14T04:03:46;100998.09;;;15.20;100.00
42385;BME280;28042;43.986;22.860;2023-06-14T04:06:11;100960.53;;;15.08;100.00
42385;BME280;28042;43.986;22.860;2023-06-14T04:08:37;100986.44;;;15.25;100.00
42385;BME280;28042;43.986;22.860;2023-06-14T04:11:04;100983.44;;;15.26;100.00
42385;BME280;28042;43.986;22.860;2023-06-14T04:13:30;100982.97;;;15.36;100.00
42385;BME280;28042;43.986;22.860;2023-06-14T04:15:56;100956.53;;;15.35;100.00
42385;BME280;28042;43.986;22.860;2023-06-14T04:18:22;100980.09;;;15.56;100.00
42385;BME280;28042;43.986;22.860;2023-06-14T04:20:49;100991.09;;;15.56;100.00
42385;BME280;28042;43.986;22.860;2023-06-14T04:23:15;100967.88;;;15.45;100.00
42385;BME280;28042;43.986;22.860;2023-06-14T04:25:43;100957.94;;;15.44;100.00
42385;BME280;28042;43.986;22.860;2023-06-14T04:28:11;100975.69;;;15.48;100.00
42385;BME280;28042;43.986;22.860;2023-06-14T04:30:37;100983.50;;;15.51;100.00
42385;BME280;28042;43.986;22.860;2023-06-14T04:33:04;100991.03;;;15.63;100.00
42385;BME280;28042;43.986;22.860;2023-06-14T04:35:31;100997.78;;;15.67;100.00
42385;BME280;28042;43.986;22.860;2023-06-14T04:37:58;100976.69;;;15.61;100.00
42385;BME280;28042;43.986;22.860;2023-06-14T04:40:24;100970.28;;;15.67;100.00
42385;BME280;28042;43.986;22.860;2023-06-14T04:42:50;101000.69;;;15.72;100.00
42385;BME280;28042;43.986;22.860;2023-06-14T04:45:16;101012.53;;;15.72;100.00
42385;BME280;28042;43.986;22.860;2023-06-14T04:47:42;100995.84;;;15.74;100.00
42385;BME280;28042;43.986;22.860;2023-06-14T04:50:09;100984.03;;;15.67;100.00
42385;BME280;28042;43.986;22.860;2023-06-14T04:52:36;100996.31;;;15.89;100.00
42385;BME280;28042;43.986;22.860;2023-06-14T04:55:02;101011.31;;;15.93;100.00
42385;BME280;28042;43.986;22.860;2023-06-14T04:57:28;100987.72;;;15.79;100.00
42385;BME280;28042;43.986;22.860;2023-06-14T04:59:54;101014.56;;;16.08;100.00
42385;BME280;28042;43.986;22.860;2023-06-14T05:02:24;101001.06;;;16.25;100.00
42385;BME280;28042;43.986;22.860;2023-06-14T05:04:50;100972.88;;;16.05;100.00
42385;BME280;28042;43.986;22.860;2023-06-14T05:07:16;100989.94;;;16.14;100.00
42385;BME280;28042;43.986;22.860;2023-06-14T05:09:42;100974.97;;;16.09;100.00
42385;BME280;28042;43.986;22.860;2023-06-14T05:12:08;100977.56;;;16.23;100.00
42385;BME280;28042;43.986;22.860;2023-06-14T05:14:34;100977.72;;;16.28;100.00
42385;BME280;28042;43.986;22.860;2023-06-14T05:17:00;101005.50;;;16.45;100.00
42385;BME280;28042;43.986;22.860;2023-06-14T05:19:25;100974.81;;;16.59;100.00
42385;BME280;28042;43.986;22.860;2023-06-14T05:21:52;101007.22;;;17.12;100.00
42385;BME280;28042;43.986;22.860;2023-06-14T05:24:18;100986.97;;;17.18;100.00
42385;BME280;28042;43.986;22.860;2023-06-14T05:26:43;101000.34;;;17.45;100.00
42385;BME280;28042;43.986;22.860;2023-06-14T05:29:09;100998.31;;;17.40;100.00
42385;BME280;28042;43.986;22.860;2023-06-14T05:31:35;101017.88;;;17.39;100.00
42385;BME280;28042;43.986;22.860;2023-06-14T05:34:01;101010.78;;;17.43;100.00
42385;BME280;28042;43.986;22.860;2023-06-14T05:36:26;100992.91;;;17.45;100.00
42385;BME280;28042;43.986;22.860;2023-06-14T05:38:53;101028.88;;;17.80;100.00
42385;BME280;28042;43.986;22.860;2023-06-14T05:41:28;101020.59;;;17.80;100.00
42385;BME280;28042;43.986;22.860;2023-06-14T05:43:57;101001.69;;;17.54;100.00
42385;BME280;28042;43.986;22.860;2023-06-14T05:46:23;101013.91;;;17.76;100.00
42385;BME280;28042;43.986;22.860;2023-06-14T05:48:51;101018.47;;;17.83;100.00
42385;BME280;28042;43.986;22.860;2023-06-14T05:51:17;101021.22;;;18.06;100.00
42385;BME280;28042;43.986;22.860;2023-06-14T05:53:50;101022.94;;;18.19;100.00
42385;BME280;28042;43.986;22.860;2023-06-14T05:56:17;101022.06;;;18.42;100.00
42385;BME280;28042;43.986;22.860;2023-06-14T05:58:47;101017.47;;;18.59;100.00
42385;BME280;28042;43.986;22.860;2023-06-14T06:01:13;101022.03;;;18.88;100.00
42385;BME280;28042;43.986;22.860;2023-06-14T06:03:39;101016.03;;;18.80;100.00
42385;BME280;28042;43.986;22.860;2023-06-14T06:06:04;100992.13;;;18.62;100.00
42385;BME280;28042;43.986;22.860;2023-06-14T06:08:30;101003.06;;;18.80;100.00
42385;BME280;28042;43.986;22.860;2023-06-14T06:10:56;101015.88;;;19.43;100.00
42385;BME280;28042;43.986;22.860;2023-06-14T06:13:22;100978.97;;;19.83;100.00
42385;BME280;28042;43.986;22.860;2023-06-14T06:15:48;100995.00;;;20.53;100.00
42385;BME280;28042;43.986;22.860;2023-06-14T06:18:13;100983.44;;;20.83;100.00
42385;BME280;28042;43.986;22.860;2023-06-14T06:20:39;100978.09;;;20.55;100.00
42385;BME280;28042;43.986;22.860;2023-06-14T06:23:04;101009.44;;;20.55;100.00
42385;BME280;28042;43.986;22.860;2023-06-14T06:25:30;100973.78;;;20.64;100.00
42385;BME280;28042;43.986;22.860;2023-06-14T06:27:57;100997.31;;;20.62;100.00
42385;BME280;28042;43.986;22.860;2023-06-14T06:30:23;101008.97;;;20.64;100.00
42385;BME280;28042;43.986;22.860;2023-06-14T06:32:48;101002.63;;;20.85;100.00
42385;BME280;28042;43.986;22.860;2023-06-14T06:35:14;100980.75;;;21.15;100.00
42385;BME280;28042;43.986;22.860;2023-06-14T06:37:41;100978.41;;;21.56;100.00
42385;BME280;28042;43.986;22.860;2023-06-14T06:40:07;100998.28;;;21.75;100.00
42385;BME280;28042;43.986;22.860;2023-06-14T06:42:34;101014.59;;;21.12;100.00
42385;BME280;28042;43.986;22.860;2023-06-14T06:44:59;101000.09;;;21.10;100.00
42385;BME280;28042;43.986;22.860;2023-06-14T06:47:25;101001.47;;;21.30;100.00
42385;BME280;28042;43.986;22.860;2023-06-14T06:49:51;100992.09;;;21.36;100.00
42385;BME280;28042;43.986;22.860;2023-06-14T06:52:16;101008.88;;;21.46;100.00
42385;BME280;28042;43.986;22.860;2023-06-14T06:54:42;101002.22;;;21.47;100.00
42385;BME280;28042;43.986;22.860;2023-06-14T06:57:07;101007.16;;;21.45;100.00
42385;BME280;28042;43.986;22.860;2023-06-14T06:59:35;101014.50;;;21.56;100.00
42385;BME280;28042;43.986;22.860;2023-06-14T07:02:00;100995.69;;;21.63;100.00
42385;BME280;28042;43.986;22.860;2023-06-14T07:04:26;100984.75;;;21.84;99.32
42385;BME280;28042;43.986;22.860;2023-06-14T07:06:51;100981.75;;;22.33;94.75
42385;BME280;28042;43.986;22.860;2023-06-14T07:09:17;101008.16;;;22.77;94.77
42385;BME280;28042;43.986;22.860;2023-06-14T07:11:47;100994.09;;;23.04;90.75
42385;BME280;28042;43.986;22.860;2023-06-14T07:14:13;100992.44;;;23.08;87.28
42385;BME280;28042;43.986;22.860;2023-06-14T07:16:38;100984.16;;;22.66;87.53
42385;BME280;28042;43.986;22.860;2023-06-14T07:19:04;101001.22;;;22.80;87.21
42385;BME280;28042;43.986;22.860;2023-06-14T07:21:30;100977.34;;;22.37;88.85
42385;BME280;28042;43.986;22.860;2023-06-14T07:23:56;101007.84;;;22.21;88.85
42385;BME280;28042;43.986;22.860;2023-06-14T07:26:22;100993.19;;;22.36;88.74
42385;BME280;28042;43.986;22.860;2023-06-14T07:28:48;101001.84;;;22.40;87.79
42385;BME280;28042;43.986;22.860;2023-06-14T07:31:15;100979.31;;;22.36;87.75
42385;BME280;28042;43.986;22.860;2023-06-14T07:33:41;100997.41;;;22.44;88.30
42385;BME280;28042;43.986;22.860;2023-06-14T07:36:08;100986.44;;;22.22;89.64
42385;BME280;28042;43.986;22.860;2023-06-14T07:38:33;101011.13;;;21.81;91.67
42385;BME280;28042;43.986;22.860;2023-06-14T07:41:00;101019.22;;;21.56;97.58
42385;BME280;28042;43.986;22.860;2023-06-14T07:43:25;101012.97;;;21.70;96.95
42385;BME280;28042;43.986;22.860;2023-06-14T07:45:51;101002.16;;;21.42;97.16
42385;BME280;28042;43.986;22.860;2023-06-14T07:48:16;101015.03;;;21.53;99.06
42385;BME280;28042;43.986;22.860;2023-06-14T07:50:42;101018.50;;;21.65;99.26
42385;BME280;28042;43.986;22.860;2023-06-14T07:53:26;101007.28;;;21.55;99.38
42385;BME280;28042;43.986;22.860;2023-06-14T07:55:52;101033.34;;;21.54;98.72
42385;BME280;28042;43.986;22.860;2023-06-14T07:58:17;101031.69;;;21.53;97.84
42385;BME280;28042;43.986;22.860;2023-06-14T08:00:43;101033.53;;;21.21;99.83
42385;BME280;28042;43.986;22.860;2023-06-14T08:03:08;101043.47;;;21.16;100.00
42385;BME280;28042;43.986;22.860;2023-06-14T08:05:33;101049.03;;;20.73;100.00
42385;BME280;28042;43.986;22.860;2023-06-14T08:08:00;101021.16;;;20.63;100.00
42385;BME280;28042;43.986;22.860;2023-06-14T08:10:25;101024.25;;;20.44;100.00
42385;BME280;28042;43.986;22.860;2023-06-14T08:12:51;101061.16;;;20.50;100.00
42385;BME280;28042;43.986;22.860;2023-06-14T08:15:17;101072.75;;;20.30;100.00
42385;BME280;28042;43.986;22.860;2023-06-14T08:17:43;101072.69;;;20.08;100.00
42385;BME280;28042;43.986;22.860;2023-06-14T08:20:09;101075.97;;;20.05;100.00
42385;BME280;28042;43.986;22.860;2023-06-14T08:22:35;101050.59;;;19.96;100.00
42385;BME280;28042;43.986;22.860;2023-06-14T08:25:01;101067.38;;;20.07;100.00
42385;BME280;28042;43.986;22.860;2023-06-14T08:27:27;101065.22;;;20.09;100.00
42385;BME280;28042;43.986;22.860;2023-06-14T08:29:53;101057.81;;;19.97;100.00
42385;BME280;28042;43.986;22.860;2023-06-14T08:32:19;101051.44;;;20.14;100.00
42385;BME280;28042;43.986;22.860;2023-06-14T08:34:44;101056.56;;;20.22;100.00
42385;BME280;28042;43.986;22.860;2023-06-14T08:37:10;101083.69;;;20.53;100.00
42385;BME280;28042;43.986;22.860;2023-06-14T08:39:35;101069.00;;;20.75;100.00
42385;BME280;28042;43.986;22.860;2023-06-14T08:42:02;101070.84;;;20.86;100.00
42385;BME280;28042;43.986;22.860;2023-06-14T08:44:29;101072.66;;;20.97;100.00
42385;BME280;28042;43.986;22.860;2023-06-14T08:46:56;101049.81;;;20.90;100.00
42385;BME280;28042;43.986;22.860;2023-06-14T08:49:24;101078.06;;;21.09;100.00
42385;BME280;28042;43.986;22.860;2023-06-14T08:51:57;101068.84;;;21.03;100.00
42385;BME280;28042;43.986;22.860;2023-06-14T08:54:25;101056.69;;;20.66;100.00
42385;BME280;28042;43.986;22.860;2023-06-14T08:56:53;101070.31;;;20.89;100.00
42385;BME280;28042;43.986;22.860;2023-06-14T08:59:24;101082.56;;;20.93;100.00
42385;BME280;28042;43.986;22.860;2023-06-14T09:01:51;101083.09;;;20.90;100.00
42385;BME280;28042;43.986;22.860;2023-06-14T09:04:18;101046.38;;;20.61;100.00
42385;BME280;28042;43.986;22.860;2023-06-14T09:06:45;101085.66;;;20.75;100.00
42385;BME280;28042;43.986;22.860;2023-06-14T09:09:11;101086.16;;;20.72;100.00
42385;BME280;28042;43.986;22.860;2023-06-14T09:11:37;101067.78;;;20.66;100.00
42385;BME280;28042;43.986;22.860;2023-06-14T09:14:03;101094.75;;;20.70;100.00
42385;BME280;28042;43.986;22.860;2023-06-14T09:16:32;101066.91;;;20.43;100.00
42385;BME280;28042;43.986;22.860;2023-06-14T09:18:57;101105.34;;;20.56;100.00
42385;BME280;28042;43.986;22.860;2023-06-14T09:21:23;101070.25;;;20.12;100.00
42385;BME280;28042;43.986;22.860;2023-06-14T09:23:48;101073.69;;;20.19;100.00
42385;BME280;28042;43.986;22.860;2023-06-14T09:26:16;101091.56;;;20.28;100.00
42385;BME280;28042;43.986;22.860;2023-06-14T09:31:10;101077.41;;;20.08;100.00
42385;BME280;28042;43.986;22.860;2023-06-14T09:33:36;101101.97;;;20.21;100.00
42385;BME280;28042;43.986;22.860;2023-06-14T09:36:01;101117.34;;;20.12;100.00
42385;BME280;28042;43.986;22.860;2023-06-14T09:38:27;101102.50;;;20.18;100.00
42385;BME280;28042;43.986;22.860;2023-06-14T09:40:56;101102.41;;;20.13;100.00
42385;BME280;28042;43.986;22.860;2023-06-14T09:43:22;101091.56;;;20.28;100.00
42385;BME280;28042;43.986;22.860;2023-06-14T09:45:48;101110.84;;;20.51;100.00
42385;BME280;28042;43.986;22.860;2023-06-14T09:48:16;101093.81;;;20.65;100.00
42385;BME280;28042;43.986;22.860;2023-06-14T09:50:46;101087.19;;;20.66;100.00
42385;BME280;28042;43.986;22.860;2023-06-14T09:53:14;101074.19;;;20.88;100.00
42385;BME280;28042;43.986;22.860;2023-06-14T09:55:41;101089.53;;;21.17;100.00
42385;BME280;28042;43.986;22.860;2023-06-14T09:58:08;101083.66;;;21.58;100.00
42385;BME280;28042;43.986;22.860;2023-06-14T10:00:36;101074.84;;;21.93;98.22
42385;BME280;28042;43.986;22.860;2023-06-14T10:03:21;101077.72;;;22.40;95.17
42385;BME280;28042;43.986;22.860;2023-06-14T10:05:47;101080.84;;;22.49;91.62
42385;BME280;28042;43.986;22.860;2023-06-14T10:08:17;101079.56;;;23.14;88.64
42385;BME280;28042;43.986;22.860;2023-06-14T10:10:43;101055.63;;;23.13;86.50
42385;BME280;28042;43.986;22.860;2023-06-14T10:13:10;101034.81;;;23.41;83.70
42385;BME280;28042;43.986;22.860;2023-06-14T10:16:00;101072.00;;;24.08;81.94
42385;BME280;28042;43.986;22.860;2023-06-14T10:24:30;101061.38;;;24.05;81.63
42385;BME280;28042;43.986;22.860;2023-06-14T10:26:58;101058.03;;;24.48;78.67
42385;BME280;28042;43.986;22.860;2023-06-14T10:29:28;101061.94;;;24.12;80.52
42385;BME280;28042;43.986;22.860;2023-06-14T10:31:59;101056.38;;;24.37;80.62
42385;BME280;28042;43.986;22.860;2023-06-14T10:34:25;101059.69;;;24.14;80.38
42385;BME280;28042;43.986;22.860;2023-06-14T10:37:11;101061.38;;;23.94;80.87
42385;BME280;28042;43.986;22.860;2023-06-14T10:39:41;101064.16;;;23.69;81.76
42385;BME280;28042;43.986;22.860;2023-06-14T10:42:07;101049.09;;;24.21;80.45
42385;BME280;28042;43.986;22.860;2023-06-14T10:44:37;101037.94;;;24.51;79.19
42385;BME280;28042;43.986;22.860;2023-06-14T10:47:07;101043.81;;;24.45;77.75
42385;BME280;28042;43.986;22.860;2023-06-14T10:49:37;101032.78;;;24.89;76.58
42385;BME280;28042;43.986;22.860;2023-06-14T10:52:12;101019.41;;;24.86;75.65
42385;BME280;28042;43.986;22.860;2023-06-14T10:55:00;101033.25;;;25.22;73.47
42385;BME280;28042;43.986;22.860;2023-06-14T10:57:53;101027.34;;;25.28;76.19
42385;BME280;28042;43.986;22.860;2023-06-14T11:00:27;101000.25;;;25.29;76.23
42385;BME280;28042;43.986;22.860;2023-06-14T11:05:57;101028.66;;;25.41;75.34
42385;BME280;28042;43.986;22.860;2023-06-14T11:11:32;101006.94;;;26.06;70.41
42385;BME280;28042;43.986;22.860;2023-06-14T11:13:59;101012.53;;;25.67;69.39
42385;BME280;28042;43.986;22.860;2023-06-14T11:16:26;101012.84;;;25.65;70.54
42385;BME280;28042;43.986;22.860;2023-06-14T11:18:55;101008.09;;;25.22;71.41
42385;BME280;28042;43.986;22.860;2023-06-14T11:21:20;101005.38;;;25.06;74.31
42385;BME280;28042;43.986;22.860;2023-06-14T11:23:50;101008.75;;;24.98;75.17
42385;BME280;28042;43.986;22.860;2023-06-14T11:26:24;101009.25;;;25.16;72.09
42385;BME280;28042;43.986;22.860;2023-06-14T11:28:55;101001.63;;;24.67;73.47
42385;BME280;28042;43.986;22.860;2023-06-14T11:31:21;100995.28;;;24.31;75.41
42385;BME280;28042;43.986;22.860;2023-06-14T11:33:50;100966.84;;;24.44;74.06
42385;BME280;28042;43.986;22.860;2023-06-14T11:36:16;100991.06;;;24.53;75.14
42385;BME280;28042;43.986;22.860;2023-06-14T11:38:42;100964.25;;;24.58;76.35
42385;BME280;28042;43.986;22.860;2023-06-14T11:41:07;100977.16;;;25.13;74.29
42385;BME280;28042;43.986;22.860;2023-06-14T11:43:33;100973.13;;;24.80;74.67
42385;BME280;28042;43.986;22.860;2023-06-14T11:46:00;100972.47;;;25.48;75.33
42385;BME280;28042;43.986;22.860;2023-06-14T11:48:42;100973.41;;;25.28;71.54
42385;BME280;28042;43.986;22.860;2023-06-14T11:51:08;100974.66;;;25.01;74.60
42385;BME280;28042;43.986;22.860;2023-06-14T11:53:33;100951.41;;;25.21;72.10
42385;BME280;28042;43.986;22.860;2023-06-14T11:55:59;100974.00;;;25.64;74.82
42385;BME280;28042;43.986;22.860;2023-06-14T11:58:26;100946.06;;;25.25;72.14
42385;BME280;28042;43.986;22.860;2023-06-14T12:00:53;100977.81;;;25.39;71.92
42385;BME280;28042;43.986;22.860;2023-06-14T12:03:25;100973.94;;;25.35;70.87
42385;BME280;28042;43.986;22.860;2023-06-14T12:06:08;100972.59;;;25.72;70.54
42385;BME280;28042;43.986;22.860;2023-06-14T12:08:38;100972.84;;;25.31;69.95
42385;BME280;28042;43.986;22.860;2023-06-14T12:11:11;100966.34;;;25.41;70.68
42385;BME280;28042;43.986;22.860;2023-06-14T12:13:39;100952.44;;;25.70;69.80
42385;BME280;28042;43.986;22.860;2023-06-14T12:16:07;100933.69;;;25.75;66.58
42385;BME280;28042;43.986;22.860;2023-06-14T12:18:38;100965.63;;;25.98;68.01
42385;BME280;28042;43.986;22.860;2023-06-14T12:21:05;100976.03;;;25.53;65.40
42385;BME280;28042;43.986;22.860;2023-06-14T12:23:47;100971.72;;;25.71;65.35
42385;BME280;28042;43.986;22.860;2023-06-14T12:26:18;100960.81;;;25.75;67.95
42385;BME280;28042;43.986;22.860;2023-06-14T12:28:47;100937.59;;;25.40;65.48
42385;BME280;28042;43.986;22.860;2023-06-14T12:31:14;100963.22;;;25.86;67.17
42385;BME280;28042;43.986;22.860;2023-06-14T12:33:41;100964.06;;;26.16;68.11
42385;BME280;28042;43.986;22.860;2023-06-14T12:36:08;100953.84;;;26.01;69.32
42385;BME280;28042;43.986;22.860;2023-06-14T12:38:34;100933.19;;;25.97;66.36
42385;BME280;28042;43.986;22.860;2023-06-14T12:41:00;100950.91;;;26.16;68.30
42385;BME280;28042;43.986;22.860;2023-06-14T12:43:26;100949.03;;;26.31;67.89
42385;BME280;28042;43.986;22.860;2023-06-14T12:45:51;100920.22;;;26.59;67.65
42385;BME280;28042;43.986;22.860;2023-06-14T12:48:17;100938.53;;;27.13;67.16